createdAt,value
2018-04-29T00:02:07.208Z,84.45
2018-04-29T00:04:36.240Z,83.54
2018-04-29T00:07:05.398Z,83.05
2018-04-29T00:09:34.542Z,82.38
2018-04-29T00:12:04.021Z,81.63
2018-04-29T00:14:34.024Z,81.10
2018-04-29T00:17:03.091Z,80.41
2018-04-29T00:19:32.440Z,81.86
2018-04-29T00:22:01.941Z,81.98
2018-04-29T00:24:31.028Z,82.90
2018-04-29T00:27:00.416Z,84.92
2018-04-29T00:29:29.571Z,84.45
2018-04-29T00:31:59.764Z,83.95
2018-04-29T00:34:29.038Z,82.41
2018-04-29T00:36:58.116Z,84.52
2018-04-29T00:39:27.606Z,82.78
2018-04-29T00:41:56.779Z,83.69
2018-04-29T00:44:25.748Z,81.22
2018-04-29T00:46:54.871Z,82.32
2018-04-29T00:49:24.348Z,81.41
2018-04-29T00:52:04.584Z,82.61
2018-04-29T00:54:36.760Z,83.76
2018-04-29T00:57:06.069Z,82.68
2018-04-29T00:59:35.333Z,81.58
2018-04-29T01:02:04.400Z,82.35
2018-04-29T01:04:33.609Z,80.15
2018-04-29T01:07:02.847Z,80.06
2018-04-29T01:09:32.272Z,82.03
2018-04-29T01:12:01.507Z,80.21
2018-04-29T01:14:30.713Z,81.70
2018-04-29T01:16:59.869Z,81.89
2018-04-29T01:19:28.996Z,83.37
2018-04-29T01:21:58.188Z,82.18
2018-04-29T01:24:27.692Z,81.88
2018-04-29T01:26:56.712Z,82.59
2018-04-29T01:29:25.920Z,81.89
2018-04-29T01:31:55.276Z,82.99
2018-04-29T01:34:24.275Z,83.19
2018-04-29T01:36:53.485Z,82.60
2018-04-29T01:39:22.536Z,82.46
2018-04-29T01:41:51.568Z,82.38
2018-04-29T01:44:20.908Z,85.21
2018-04-29T01:46:49.979Z,84.62
2018-04-29T01:49:19.365Z,84.51
2018-04-29T01:51:48.756Z,86.26
2018-04-29T01:54:17.780Z,87.01
2018-04-29T01:56:47.067Z,87.09
2018-04-29T01:59:16.384Z,87.41
2018-04-29T02:01:45.498Z,86.44
2018-04-29T02:04:15.006Z,87.16
2018-04-29T02:06:44.412Z,86.70
2018-04-29T02:09:13.553Z,86.03
2018-04-29T02:11:42.504Z,86.52
2018-04-29T02:14:11.834Z,87.40
2018-04-29T02:16:41.027Z,87.21
2018-04-29T02:19:10.462Z,86.73
2018-04-29T02:21:39.475Z,85.91
2018-04-29T02:24:08.476Z,85.94
2018-04-29T02:26:37.586Z,85.66
2018-04-29T02:29:06.695Z,86.77
2018-04-29T02:31:35.930Z,87.78
2018-04-29T02:34:05.049Z,88.53
2018-04-29T02:36:34.065Z,87.45
2018-04-29T02:39:03.209Z,87.54
2018-04-29T02:41:32.474Z,86.35
2018-04-29T02:44:01.654Z,88.25
2018-04-29T02:46:30.604Z,88.53
2018-04-29T02:48:59.893Z,87.98
2018-04-29T02:51:29.100Z,86.52
2018-04-29T02:53:58.522Z,86.34
2018-04-29T02:56:27.644Z,86.77
2018-04-29T02:58:56.784Z,85.71
2018-04-29T03:01:26.332Z,87.79
2018-04-29T03:03:55.476Z,87.55
2018-04-29T03:06:24.546Z,87.83
2018-04-29T03:08:53.739Z,87.00
2018-04-29T03:11:23.080Z,88.30
2018-04-29T03:13:52.301Z,88.10
2018-04-29T03:16:21.331Z,87.53
2018-04-29T03:18:50.348Z,88.16
2018-04-29T03:21:19.501Z,88.79
2018-04-29T03:23:48.604Z,89.57
2018-04-29T03:26:17.772Z,87.80
2018-04-29T03:28:47.700Z,87.09
2018-04-29T03:31:16.880Z,88.07
2018-04-29T03:33:45.944Z,86.99
2018-04-29T03:36:15.028Z,85.64
2018-04-29T03:38:44.176Z,86.79
2018-04-29T03:41:13.360Z,86.40
2018-04-29T03:43:42.429Z,87.32
2018-04-29T03:46:11.440Z,87.16
2018-04-29T03:48:40.629Z,87.57
2018-04-29T03:51:09.738Z,85.88
2018-04-29T03:53:38.937Z,86.00
2018-04-29T03:56:08.381Z,84.88
2018-04-29T03:58:48.933Z,85.02
2018-04-29T04:01:29.258Z,85.54
2018-04-29T04:03:59.166Z,86.70
2018-04-29T04:06:28.347Z,88.00
2018-04-29T04:08:57.591Z,87.16
2018-04-29T04:11:26.696Z,87.38
2018-04-29T04:13:55.869Z,86.88
2018-04-29T04:16:24.936Z,86.09
2018-04-29T04:18:54.192Z,84.39
2018-04-29T04:21:23.443Z,84.53
2018-04-29T04:23:52.720Z,86.08
2018-04-29T04:26:22.071Z,87.16
2018-04-29T04:28:51.265Z,86.74
2018-04-29T04:31:20.524Z,85.63
2018-04-29T04:33:49.810Z,85.27
2018-04-29T04:36:19.043Z,83.98
2018-04-29T04:38:48.003Z,84.21
2018-04-29T04:41:17.420Z,80.42
2018-04-29T04:43:46.862Z,80.90
2018-04-29T04:46:16.270Z,81.11
2018-04-29T04:48:45.497Z,77.68
2018-04-29T04:51:14.509Z,77.79
2018-04-29T04:53:43.620Z,77.82
2018-04-29T04:56:12.948Z,79.27
2018-04-29T04:58:42.298Z,81.25
2018-04-29T05:01:11.635Z,80.87
2018-04-29T05:03:40.834Z,78.27
2018-04-29T05:06:10.160Z,77.86
2018-04-29T05:08:39.665Z,78.74
2018-04-29T05:11:08.712Z,78.73
2018-04-29T05:13:37.718Z,79.32
2018-04-29T05:16:06.767Z,80.50
2018-04-29T05:18:35.715Z,80.41
2018-04-29T05:21:04.856Z,82.03
2018-04-29T05:23:34.280Z,81.36
2018-04-29T05:26:03.445Z,82.16
2018-04-29T05:28:32.460Z,83.11
2018-04-29T05:31:01.575Z,82.73
2018-04-29T05:33:30.653Z,81.01
2018-04-29T05:35:59.840Z,82.28
2018-04-29T05:38:29.083Z,82.48
2018-04-29T05:40:58.550Z,80.79
2018-04-29T05:43:27.825Z,79.58
2018-04-29T05:45:56.776Z,79.25
2018-04-29T05:48:25.865Z,78.83
2018-04-29T05:50:55.178Z,76.73
2018-04-29T05:53:24.519Z,77.90
2018-04-29T05:55:54.304Z,78.64
2018-04-29T05:58:23.485Z,76.59
2018-04-29T06:00:52.704Z,75.80
2018-04-29T06:03:21.976Z,76.55
2018-04-29T06:05:51.478Z,78.84
2018-04-29T06:08:20.604Z,79.24
2018-04-29T06:10:50.002Z,74.14
2018-04-29T06:13:19.079Z,75.04
2018-04-29T06:15:48.072Z,73.69
2018-04-29T06:18:17.167Z,73.08
2018-04-29T06:20:46.573Z,74.22
2018-04-29T06:23:15.675Z,75.54
2018-04-29T06:25:44.739Z,74.17
2018-04-29T06:28:14.044Z,74.15
2018-04-29T06:30:43.139Z,75.93
2018-04-29T06:33:12.168Z,74.17
2018-04-29T06:35:41.150Z,75.08
2018-04-29T06:38:10.197Z,73.36
2018-04-29T06:40:39.397Z,72.28
2018-04-29T06:43:08.596Z,73.11
2018-04-29T06:45:37.719Z,74.51
2018-04-29T06:48:06.977Z,74.84
2018-04-29T06:50:36.237Z,75.68
2018-04-29T06:53:05.579Z,76.71
2018-04-29T06:55:34.648Z,77.45
2018-04-29T06:58:03.933Z,76.93
2018-04-29T07:00:33.211Z,77.42
2018-04-29T07:03:02.368Z,75.83
2018-04-29T07:05:31.484Z,77.10
2018-04-29T07:08:00.605Z,77.18
2018-04-29T07:10:29.855Z,77.34
2018-04-29T07:12:59.050Z,77.67
2018-04-29T07:15:28.364Z,77.58
2018-04-29T07:17:57.708Z,78.54
2018-04-29T07:20:27.034Z,78.77
2018-04-29T07:22:56.166Z,76.09
2018-04-29T07:25:25.395Z,76.31
2018-04-29T07:27:54.539Z,76.26
2018-04-29T07:30:23.877Z,77.58
2018-04-29T07:32:53.349Z,75.66
2018-04-29T07:35:22.308Z,76.23
2018-04-29T07:37:51.464Z,75.24
2018-04-29T07:40:20.524Z,74.79
2018-04-29T07:42:49.593Z,75.01
2018-04-29T07:45:18.985Z,75.75
2018-04-29T07:47:47.940Z,75.28
2018-04-29T07:50:17.122Z,76.23
2018-04-29T07:52:46.332Z,78.46
2018-04-29T07:55:15.744Z,75.55
2018-04-29T07:57:44.948Z,77.01
2018-04-29T08:00:14.092Z,76.84
2018-04-29T08:02:43.247Z,76.53
2018-04-29T08:05:12.476Z,76.02
2018-04-29T08:07:41.859Z,75.78
2018-04-29T08:10:10.939Z,75.38
2018-04-29T08:12:40.740Z,75.27
2018-04-29T08:15:09.787Z,74.84
2018-04-29T08:17:38.942Z,75.12
2018-04-29T08:20:08.172Z,75.06
2018-04-29T08:22:37.181Z,73.63
2018-04-29T08:25:06.300Z,76.33
2018-04-29T08:27:35.377Z,76.05
2018-04-29T08:30:04.948Z,74.34
2018-04-29T08:32:33.980Z,73.08
2018-04-29T08:35:03.077Z,74.14
2018-04-29T08:37:32.343Z,74.68
2018-04-29T08:40:01.368Z,75.04
2018-04-29T08:42:30.440Z,72.14
2018-04-29T08:44:59.625Z,72.09
2018-04-29T08:47:28.885Z,72.52
2018-04-29T08:49:58.436Z,73.29
2018-04-29T08:52:27.846Z,72.45
2018-04-29T08:54:56.988Z,70.97
2018-04-29T08:57:26.077Z,72.06
2018-04-29T08:59:55.207Z,73.38
2018-04-29T09:02:24.880Z,73.76
2018-04-29T09:04:53.968Z,74.61
2018-04-29T09:07:23.429Z,73.78
2018-04-29T09:09:52.512Z,74.22
2018-04-29T09:12:21.520Z,72.08
2018-04-29T09:14:50.512Z,71.99
2018-04-29T09:17:20.463Z,71.92
2018-04-29T09:19:49.650Z,72.83
2018-04-29T09:22:18.847Z,73.64
2018-04-29T09:24:48.054Z,73.99
2018-04-29T09:27:17.256Z,73.88
2018-04-29T09:29:46.556Z,74.27
2018-04-29T09:32:16.073Z,75.66
2018-04-29T09:34:45.256Z,73.46
2018-04-29T09:37:14.645Z,72.06
2018-04-29T09:39:43.767Z,71.49
2018-04-29T09:42:12.945Z,71.05
2018-04-29T09:44:42.056Z,71.65
2018-04-29T09:47:11.119Z,71.74
2018-04-29T09:49:40.287Z,73.24
2018-04-29T09:52:09.649Z,73.30
2018-04-29T09:54:38.799Z,73.37
2018-04-29T09:57:08.200Z,72.76
2018-04-29T09:59:37.360Z,72.87
2018-04-29T10:02:11.215Z,73.03
2018-04-29T10:04:40.339Z,71.96
2018-04-29T10:07:09.369Z,73.95
2018-04-29T10:09:38.503Z,70.64
2018-04-29T10:12:07.614Z,71.74
2018-04-29T10:14:36.704Z,72.59
2018-04-29T10:17:06.058Z,71.34
2018-04-29T10:19:35.679Z,71.80
2018-04-29T10:22:05.084Z,72.07
2018-04-29T10:24:34.462Z,72.37
2018-04-29T10:27:04.009Z,73.36
2018-04-29T10:29:33.279Z,71.87
2018-04-29T10:32:02.538Z,71.79
2018-04-29T10:34:32.512Z,70.92
2018-04-29T10:37:01.795Z,72.08
2018-04-29T10:39:31.264Z,71.62
2018-04-29T10:42:00.435Z,70.25
2018-04-29T10:44:29.532Z,71.23
2018-04-29T10:46:59.026Z,71.75
2018-04-29T10:49:28.185Z,71.96
2018-04-29T10:51:57.227Z,71.90
2018-04-29T10:54:26.527Z,72.59
2018-04-29T10:56:55.646Z,71.29
2018-04-29T10:59:24.879Z,71.17
2018-04-29T11:01:54.460Z,70.26
2018-04-29T11:04:23.686Z,71.07
2018-04-29T11:06:52.864Z,69.59
2018-04-29T11:09:22.121Z,70.21
2018-04-29T11:11:51.357Z,69.92
2018-04-29T11:14:20.465Z,69.23
2018-04-29T11:16:49.773Z,70.40
2018-04-29T11:19:18.824Z,70.69
2018-04-29T11:21:48.090Z,70.08
2018-04-29T11:24:17.045Z,69.99
2018-04-29T11:26:46.241Z,69.35
2018-04-29T11:29:15.364Z,68.75
2018-04-29T11:31:44.502Z,69.21
2018-04-29T11:34:13.555Z,70.01
2018-04-29T11:36:42.745Z,68.61
2018-04-29T11:39:12.044Z,68.71
2018-04-29T11:41:41.467Z,67.84
2018-04-29T11:44:10.895Z,69.38
2018-04-29T11:46:39.904Z,69.16
2018-04-29T11:49:09.265Z,69.49
2018-04-29T11:51:38.483Z,69.82
2018-04-29T11:54:07.612Z,69.71
2018-04-29T11:56:37.035Z,69.48
2018-04-29T11:59:06.505Z,70.32
2018-04-29T12:01:35.842Z,70.75
2018-04-29T12:04:05.113Z,71.26
2018-04-29T12:06:34.167Z,70.68
2018-04-29T12:09:03.300Z,70.04
2018-04-29T12:11:33.040Z,69.04
2018-04-29T12:14:02.144Z,68.75
2018-04-29T12:16:31.375Z,68.77
2018-04-29T12:19:00.680Z,68.62
2018-04-29T12:21:29.820Z,68.18
2018-04-29T12:23:59.099Z,67.91
2018-04-29T12:26:28.215Z,66.90
2018-04-29T12:28:57.272Z,67.29
2018-04-29T12:31:26.644Z,68.02
2018-04-29T12:33:55.764Z,68.36
2018-04-29T12:36:25.075Z,67.67
2018-04-29T12:38:54.295Z,68.88
2018-04-29T12:41:23.408Z,67.86
2018-04-29T12:43:52.571Z,68.56
2018-04-29T12:46:21.703Z,68.89
2018-04-29T12:48:50.696Z,67.58
2018-04-29T12:51:19.800Z,66.35
2018-04-29T12:53:48.888Z,67.07
2018-04-29T12:56:18.048Z,67.71
2018-04-29T12:58:47.460Z,67.82
2018-04-29T13:01:16.476Z,68.57
2018-04-29T13:03:45.519Z,69.51
2018-04-29T13:06:15.053Z,68.62
2018-04-29T13:08:44.370Z,67.88
2018-04-29T13:11:13.542Z,68.44
2018-04-29T13:13:42.647Z,68.31
2018-04-29T13:16:11.844Z,68.97
2018-04-29T13:18:41.212Z,68.20
2018-04-29T13:21:10.573Z,66.58
2018-04-29T13:23:39.621Z,66.55
2018-04-29T13:26:08.811Z,67.31
2018-04-29T13:28:38.210Z,66.92
2018-04-29T13:31:07.231Z,66.88
2018-04-29T13:33:36.464Z,67.27
2018-04-29T13:36:05.541Z,67.90
2018-04-29T13:38:34.932Z,66.17
2018-04-29T13:41:04.069Z,67.35
2018-04-29T13:43:33.351Z,63.12
2018-04-29T13:46:02.841Z,60.25
2018-04-29T13:48:31.848Z,58.62
2018-04-29T13:51:01.065Z,55.90
2018-04-29T13:53:30.248Z,55.13
2018-04-29T13:55:59.300Z,55.46
2018-04-29T13:58:28.375Z,56.17
2018-04-29T14:00:57.364Z,56.84
2018-04-29T14:03:26.583Z,55.70
2018-04-29T14:05:55.699Z,54.64
2018-04-29T14:08:24.987Z,52.06
2018-04-29T14:10:54.257Z,54.61
2018-04-29T14:13:23.352Z,54.49
2018-04-29T14:15:52.781Z,53.60
2018-04-29T14:18:21.936Z,53.64
2018-04-29T14:20:51.052Z,51.78
2018-04-29T14:23:20.252Z,51.94
2018-04-29T14:25:49.636Z,53.96
2018-04-29T14:28:18.809Z,53.15
2018-04-29T14:30:48.056Z,52.51
2018-04-29T14:33:17.108Z,52.71
2018-04-29T14:35:46.452Z,53.50
2018-04-29T14:38:15.733Z,54.36
2018-04-29T14:40:45.050Z,52.14
2018-04-29T14:43:14.862Z,50.77
2018-04-29T14:45:44.149Z,49.77
2018-04-29T14:48:13.396Z,51.04
2018-04-29T14:50:42.456Z,49.65
2018-04-29T14:53:11.621Z,48.83
2018-04-29T14:55:40.864Z,50.50
2018-04-29T14:58:10.585Z,49.95
2018-04-29T15:00:39.768Z,49.56
2018-04-29T15:03:08.840Z,47.43
2018-04-29T15:05:37.784Z,50.31
2018-04-29T15:08:06.989Z,50.60
2018-04-29T15:10:36.056Z,52.42
2018-04-29T15:13:05.488Z,50.21
2018-04-29T15:15:34.750Z,49.21
2018-04-29T15:18:03.756Z,49.83
2018-04-29T15:20:32.624Z,51.46
2018-04-29T15:23:01.991Z,50.21
2018-04-29T15:25:31.250Z,50.97
2018-04-29T15:28:00.376Z,52.58
2018-04-29T15:30:29.500Z,50.18
2018-04-29T15:32:58.647Z,49.29
2018-04-29T15:35:27.853Z,49.81
2018-04-29T15:37:57.300Z,49.17
2018-04-29T15:40:26.723Z,48.75
2018-04-29T15:42:55.951Z,48.74
2018-04-29T15:45:25.048Z,51.04
2018-04-29T15:47:54.232Z,51.88
2018-04-29T15:50:23.369Z,52.34
2018-04-29T15:52:52.435Z,52.56
2018-04-29T15:55:21.784Z,52.00
2018-04-29T15:57:52.192Z,51.37
2018-04-29T16:00:21.205Z,51.02
2018-04-29T16:02:50.190Z,49.71
2018-04-29T16:05:19.264Z,49.65
2018-04-29T16:07:48.360Z,51.38
2018-04-29T16:10:17.481Z,53.15
2018-04-29T16:12:46.535Z,51.12
2018-04-29T16:15:15.741Z,46.57
2018-04-29T16:17:45.126Z,49.24
2018-04-29T16:20:14.260Z,48.83
2018-04-29T16:22:43.345Z,48.13
2018-04-29T16:25:12.621Z,52.91
2018-04-29T16:27:41.664Z,53.69
2018-04-29T16:30:10.716Z,51.14
2018-04-29T16:32:39.801Z,52.42
2018-04-29T16:35:08.913Z,55.08
2018-04-29T16:37:38.197Z,55.88
2018-04-29T16:40:07.570Z,56.67
2018-04-29T16:42:36.668Z,57.18
2018-04-29T16:45:05.702Z,58.08
2018-04-29T16:47:34.791Z,59.25
2018-04-29T16:50:04.008Z,60.57
2018-04-29T16:52:33.197Z,62.59
2018-04-29T16:55:02.355Z,64.22
2018-04-29T16:57:31.544Z,66.39
2018-04-29T17:00:00.748Z,69.01
2018-04-29T17:02:29.933Z,70.64
2018-04-29T17:04:58.900Z,73.44
2018-04-29T17:07:27.935Z,74.35
2018-04-29T17:09:56.925Z,74.57
2018-04-29T17:12:25.928Z,76.36
2018-04-29T17:14:55.136Z,76.58
2018-04-29T17:17:24.261Z,77.02
2018-04-29T17:19:53.528Z,77.56
2018-04-29T17:22:22.668Z,78.01
2018-04-29T17:24:51.833Z,78.46
2018-04-29T17:27:21.037Z,78.30
2018-04-29T17:29:50.318Z,80.02
2018-04-29T17:32:19.380Z,79.95
2018-04-29T17:34:48.452Z,79.98
2018-04-29T17:37:17.563Z,79.58
2018-04-29T17:39:46.645Z,79.42
2018-04-29T17:42:15.779Z,79.95
2018-04-29T17:44:45.053Z,80.05
2018-04-29T17:47:14.230Z,81.59
2018-04-29T17:49:43.417Z,79.67
2018-04-29T17:52:12.568Z,80.54
2018-04-29T17:54:41.663Z,80.30
2018-04-29T17:57:10.844Z,80.63
2018-04-29T17:59:40.398Z,80.56
2018-04-29T18:02:09.405Z,82.14
2018-04-29T18:04:38.733Z,81.01
2018-04-29T18:07:08.065Z,81.44
2018-04-29T18:09:37.433Z,81.58
2018-04-29T18:12:06.396Z,81.86
2018-04-29T18:14:35.568Z,83.23
2018-04-29T18:17:04.706Z,83.76
2018-04-29T18:19:33.764Z,82.48
2018-04-29T18:22:02.979Z,81.68
2018-04-29T18:24:32.376Z,83.87
2018-04-29T18:27:01.437Z,82.90
2018-04-29T18:29:30.624Z,83.28
2018-04-29T18:31:59.664Z,85.62
2018-04-29T18:34:28.720Z,84.13
2018-04-29T18:36:57.837Z,85.10
2018-04-29T18:39:27.088Z,83.60
2018-04-29T18:41:56.196Z,84.77
2018-04-29T18:44:25.292Z,83.19
2018-04-29T18:46:54.366Z,83.62
2018-04-29T18:49:23.468Z,83.83
2018-04-29T18:51:52.532Z,85.99
2018-04-29T18:54:21.588Z,84.55
2018-04-29T18:56:50.874Z,83.87
2018-04-29T18:59:19.932Z,84.39
2018-04-29T19:01:48.919Z,84.16
2018-04-29T19:04:18.067Z,85.80
2018-04-29T19:06:47.100Z,84.69
2018-04-29T19:09:16.216Z,84.69
2018-04-29T19:11:45.565Z,83.89
2018-04-29T19:14:15.391Z,84.38
2018-04-29T19:16:44.568Z,84.39
2018-04-29T19:19:13.869Z,85.18
2018-04-29T19:21:42.983Z,86.13
2018-04-29T19:24:12.102Z,86.40
2018-04-29T19:26:41.350Z,86.12
2018-04-29T19:29:10.543Z,86.52
2018-04-29T19:31:39.863Z,85.90
2018-04-29T19:34:08.844Z,86.56
2018-04-29T19:36:38.170Z,86.25
2018-04-29T19:39:07.196Z,86.58
2018-04-29T19:41:36.321Z,87.29
2018-04-29T19:44:05.603Z,87.05
2018-04-29T19:46:35.047Z,87.68
2018-04-29T19:49:04.323Z,86.83
2018-04-29T19:51:33.355Z,86.53
2018-04-29T19:54:02.441Z,86.74
2018-04-29T19:56:31.523Z,86.83
2018-04-29T19:59:00.680Z,86.84
2018-04-29T20:01:29.897Z,86.49
2018-04-29T20:03:58.974Z,87.86
2018-04-29T20:06:28.145Z,88.71
2018-04-29T20:08:57.195Z,88.45
2018-04-29T20:11:26.219Z,88.48
2018-04-29T20:13:55.036Z,88.34
2018-04-29T20:16:23.887Z,87.76
2018-04-29T20:18:53.075Z,88.98
2018-04-29T20:21:22.402Z,88.52
2018-04-29T20:23:51.605Z,88.94
2018-04-29T20:26:20.644Z,87.36
2018-04-29T20:28:49.998Z,87.45
2018-04-29T20:31:19.115Z,87.92
2018-04-29T20:33:48.233Z,89.25
2018-04-29T20:36:17.509Z,90.85
2018-04-29T20:38:46.376Z,92.33
2018-04-29T20:41:15.228Z,92.53
2018-04-29T20:43:44.119Z,91.50
2018-04-29T20:46:13.241Z,90.93
2018-04-29T20:48:42.100Z,92.56
2018-04-29T20:51:11.157Z,90.92
2018-04-29T20:53:40.421Z,90.12
2018-04-29T20:56:09.349Z,89.84
2018-04-29T20:58:38.658Z,90.07
2018-04-29T21:01:07.432Z,90.85
2018-04-29T21:03:36.293Z,89.15
2018-04-29T21:06:05.644Z,88.34
2018-04-29T21:08:34.974Z,88.11
2018-04-29T21:11:03.865Z,89.79
2018-04-29T21:13:33.210Z,88.44
2018-04-29T21:16:02.134Z,87.72
2018-04-29T21:18:31.310Z,89.53
2018-04-29T21:21:00.584Z,88.51
2018-04-29T21:23:29.608Z,87.50
2018-04-29T21:25:58.767Z,90.11
2018-04-29T21:28:27.719Z,88.45
2018-04-29T21:30:57.004Z,88.53
2018-04-29T21:33:26.182Z,89.40
2018-04-29T21:35:55.173Z,88.54
2018-04-29T21:38:24.004Z,87.66
2018-04-29T21:40:53.158Z,87.42
2018-04-29T21:43:22.124Z,87.94
2018-04-29T21:45:51.323Z,89.05
2018-04-29T21:48:20.456Z,89.54
2018-04-29T21:50:49.852Z,89.71
2018-04-29T21:53:18.861Z,87.98
2018-04-29T21:55:47.906Z,87.53
2018-04-29T21:58:16.727Z,87.67
2018-04-29T22:00:45.816Z,88.12
2018-04-29T22:03:14.655Z,86.82
2018-04-29T22:05:43.773Z,87.69
2018-04-29T22:08:12.802Z,87.32
2018-04-29T22:10:41.835Z,87.59
2018-04-29T22:13:10.720Z,87.25
2018-04-29T22:15:39.623Z,88.80
2018-04-29T22:18:08.581Z,88.46
2018-04-29T22:20:37.684Z,88.33
2018-04-29T22:23:06.670Z,88.28
2018-04-29T22:25:35.680Z,88.73
2018-04-29T22:28:04.649Z,89.42
2018-04-29T22:30:33.652Z,90.50
2018-04-29T22:33:02.725Z,90.79
2018-04-29T22:35:31.843Z,92.60
2018-04-29T22:38:00.804Z,90.00
2018-04-29T22:40:30.268Z,91.61
2018-04-29T22:42:59.167Z,93.09
2018-04-29T22:45:28.119Z,93.92
2018-04-29T22:47:57.109Z,94.66
2018-04-29T22:50:26.228Z,95.29
2018-04-29T22:52:55.205Z,95.54
2018-04-29T22:55:25.840Z,95.15
2018-04-29T22:57:54.668Z,95.29
2018-04-29T23:00:24.165Z,95.40
2018-04-29T23:02:53.355Z,95.93
2018-04-29T23:05:22.625Z,95.83
2018-04-29T23:07:51.969Z,96.17
2018-04-29T23:10:21.124Z,96.06
2018-04-29T23:12:50.264Z,96.08
2018-04-29T23:15:19.698Z,96.01
2018-04-29T23:17:49.032Z,96.18
2018-04-29T23:20:18.008Z,95.89
2018-04-29T23:22:47.188Z,95.00
2018-04-29T23:25:16.152Z,95.54
2018-04-29T23:27:45.204Z,95.42
2018-04-29T23:30:14.400Z,95.43
2018-04-29T23:32:43.556Z,93.98
2018-04-29T23:35:12.939Z,94.37
2018-04-29T23:37:42.108Z,95.22
2018-04-29T23:40:11.296Z,95.53
2018-04-29T23:42:40.452Z,95.25
2018-04-29T23:45:09.808Z,95.41
2018-04-29T23:47:39.207Z,95.71
2018-04-29T23:50:08.554Z,95.85
2018-04-29T23:52:37.688Z,95.65
2018-04-29T23:55:06.848Z,95.35
2018-04-29T23:57:36.067Z,95.20
